Time;durP1;ratioP1;P1;durP2;ratioP2;P2;SDS_P1;SDS_P2;PMS_P1;PMS_P2;Temp;Humidity;BMP_temperature;BMP_pressure;BME280_temperature;BME280_humidity;BME280_pressure;Samples;Min_cycle;Max_cycle;Signal;HPM_P1;HPM_P2
2021/06/22 00:01:43;;;;;;;29.73;15.30;;;;;;;;;;5073787;28;20078;-45
2021/06/22 00:04:09;;;;;;;19.52;14.13;;;;;;;;;;5074401;28;20025;-46
2021/06/22 00:06:35;;;;;;;10.43;7.47;;;;;;;;;;5074667;28;20376;-46
2021/06/22 00:09:01;;;;;;;10.40;8.52;;;;;;;;;;5074357;28;20095;-45
2021/06/22 00:11:27;;;;;;;9.88;8.07;;;;;;;;;;5074261;28;20073;-45
2021/06/22 00:13:54;;;;;;;10.25;8.93;;;;;;;;;;5073003;28;20055;-46
2021/06/22 00:16:20;;;;;;;15.30;11.48;;;;;;;;;;5074184;28;20064;-46
2021/06/22 00:18:46;;;;;;;18.10;12.98;;;;;;;;;;5074128;28;20039;-46
2021/06/22 00:21:13;;;;;;;9.00;7.43;;;;;;;;;;5074286;28;20119;-47
2021/06/22 00:23:39;;;;;;;10.32;6.13;;;;;;;;;;5074283;28;20104;-45
2021/06/22 00:26:05;;;;;;;8.32;6.85;;;;;;;;;;5072985;28;20409;-46
2021/06/22 00:28:31;;;;;;;11.93;7.90;;;;;;;;;;5074028;28;20428;-43
2021/06/22 00:30:57;;;;;;;7.57;5.93;;;;;;;;;;5074021;28;20081;-42
2021/06/22 00:33:23;;;;;;;16.15;12.55;;;;;;;;;;5073780;28;20480;-43
2021/06/22 00:35:49;;;;;;;10.82;7.95;;;;;;;;;;5073657;28;20036;-42
2021/06/22 00:38:15;;;;;;;7.75;6.82;;;;;;;;;;5073718;28;20029;-43
2021/06/22 00:40:41;;;;;;;10.90;8.13;;;;;;;;;;5073515;28;20036;-44
2021/06/22 00:43:08;;;;;;;12.13;8.77;;;;;;;;;;5072360;28;20056;-44
2021/06/22 00:45:34;;;;;;;12.77;7.85;;;;;;;;;;5073496;28;20021;-42
2021/06/22 00:48:01;;;;;;;8.10;6.78;;;;;;;;;;5073848;28;20325;-45
2021/06/22 00:50:27;;;;;;;12.77;6.75;;;;;;;;;;5073344;28;20020;-43
2021/06/22 00:52:53;;;;;;;7.82;6.32;;;;;;;;;;5073738;28;20028;-43
2021/06/22 00:55:29;;;;;;;7.20;6.50;;;;;;;;;;5073124;28;20024;-45
2021/06/22 00:58:02;;;;;;;8.68;6.50;;;;;;;;;;5073475;28;20029;-46
2021/06/22 01:00:28;;;;;;;11.13;7.50;;;;;;;;;;5073432;28;20078;-45
2021/06/22 01:02:55;;;;;;;10.27;7.07;;;;;;;;;;5073163;28;20017;-45
2021/06/22 01:05:22;;;;;;;9.10;6.40;;;;;;;;;;5073199;28;20056;-43
2021/06/22 01:07:48;;;;;;;10.65;8.38;;;;;;;;;;5073174;28;20067;-45
2021/06/22 01:10:14;;;;;;;9.88;7.78;;;;;;;;;;5071695;28;20079;-44
2021/06/22 01:12:40;;;;;;;11.90;8.20;;;;;;;;;;5071822;28;20025;-45
2021/06/22 01:15:14;;;;;;;25.58;16.20;;;;;;;;;;5072677;28;20500;-45
2021/06/22 01:17:40;;;;;;;13.25;10.48;;;;;;;;;;5072803;28;20139;-45
2021/06/22 01:20:06;;;;;;;10.05;7.65;;;;;;;;;;5072717;28;20334;-45
2021/06/22 01:22:32;;;;;;;12.07;10.68;;;;;;;;;;5072911;28;20021;-44
2021/06/22 01:24:58;;;;;;;11.05;8.32;;;;;;;;;;5072666;28;20107;-44
2021/06/22 01:27:25;;;;;;;13.25;9.90;;;;;;;;;;5072667;28;20029;-50
2021/06/22 01:29:52;;;;;;;15.25;10.68;;;;;;;;;;5072848;28;20024;-42
2021/06/22 01:32:18;;;;;;;12.55;9.25;;;;;;;;;;5072455;28;20074;-47
2021/06/22 01:34:44;;;;;;;14.00;9.95;;;;;;;;;;5072591;28;20036;-43
2021/06/22 01:37:11;;;;;;;11.90;8.43;;;;;;;;;;5072689;28;20029;-44
2021/06/22 01:39:37;;;;;;;10.85;7.70;;;;;;;;;;5072562;28;20048;-45
2021/06/22 01:42:03;;;;;;;8.75;7.50;;;;;;;;;;5072828;28;20029;-46
2021/06/22 01:44:30;;;;;;;9.38;7.50;;;;;;;;;;5072628;28;20050;-46
2021/06/22 01:46:56;;;;;;;10.23;7.50;;;;;;;;;;5072639;28;20021;-45
2021/06/22 01:49:22;;;;;;;10.43;8.10;;;;;;;;;;5073026;28;20047;-45
2021/06/22 01:51:49;;;;;;;8.52;7.63;;;;;;;;;;5072865;28;20024;-46
2021/06/22 01:54:15;;;;;;;13.25;9.63;;;;;;;;;;5072709;28;20020;-45
2021/06/22 01:56:47;;;;;;;18.92;12.60;;;;;;;;;;5072443;28;20036;-45
2021/06/22 01:59:13;;;;;;;12.40;9.23;;;;;;;;;;5072544;28;20079;-47
2021/06/22 02:01:39;;;;;;;14.13;9.65;;;;;;;;;;5072515;28;20025;-43
2021/06/22 02:04:05;;;;;;;12.48;10.23;;;;;;;;;;5072494;28;20028;-45
2021/06/22 02:06:31;;;;;;;20.75;13.13;;;;;;;;;;5071327;28;20048;-48
2021/06/22 02:08:57;;;;;;;17.90;12.27;;;;;;;;;;5072583;28;20028;-42
2021/06/22 02:11:23;;;;;;;15.30;10.75;;;;;;;;;;5072188;28;20017;-46
2021/06/22 02:13:49;;;;;;;15.65;9.90;;;;;;;;;;5072131;28;20079;-45
2021/06/22 02:16:18;;;;;;;15.90;10.90;;;;;;;;;;5072320;28;20040;-46
2021/06/22 02:18:45;;;;;;;9.25;8.27;;;;;;;;;;5072224;28;20057;-46
2021/06/22 02:21:11;;;;;;;11.52;8.50;;;;;;;;;;5072292;28;20017;-48
2021/06/22 02:23:38;;;;;;;10.95;8.38;;;;;;;;;;5072696;28;20028;-51
2021/06/22 02:26:05;;;;;;;11.70;9.00;;;;;;;;;;5076155;28;20074;-50
2021/06/22 02:28:31;;;;;;;15.38;8.45;;;;;;;;;;5075118;28;20029;-46
2021/06/22 02:30:57;;;;;;;9.52;7.45;;;;;;;;;;5076101;28;20480;-45
2021/06/22 02:33:24;;;;;;;9.35;7.35;;;;;;;;;;5075904;28;20112;-45
2021/06/22 02:35:50;;;;;;;17.63;9.27;;;;;;;;;;5074576;28;20438;-43
2021/06/22 02:38:16;;;;;;;12.05;9.27;;;;;;;;;;5075990;28;20025;-44
2021/06/22 02:40:42;;;;;;;13.90;9.43;;;;;;;;;;5075762;28;20036;-46
2021/06/22 02:43:08;;;;;;;11.00;9.00;;;;;;;;;;5075843;28;20029;-44
2021/06/22 02:45:35;;;;;;;10.38;8.32;;;;;;;;;;5076066;28;20032;-46
2021/06/22 02:48:02;;;;;;;12.13;8.73;;;;;;;;;;5075862;28;20078;-45
2021/06/22 02:50:28;;;;;;;15.13;9.93;;;;;;;;;;5075835;28;20376;-46
2021/06/22 02:52:54;;;;;;;13.20;9.57;;;;;;;;;;5075616;28;20024;-46
2021/06/22 02:55:22;;;;;;;12.77;9.00;;;;;;;;;;5075676;28;20059;-44
2021/06/22 02:57:52;;;;;;;12.88;9.85;;;;;;;;;;5075827;28;20023;-45
2021/06/22 03:00:19;;;;;;;8.75;7.88;;;;;;;;;;5075563;28;20048;-45
2021/06/22 03:02:46;;;;;;;13.90;7.82;;;;;;;;;;5075459;28;20100;-46
2021/06/22 03:05:12;;;;;;;11.75;8.60;;;;;;;;;;5075507;28;20476;-46
2021/06/22 03:07:39;;;;;;;9.88;8.65;;;;;;;;;;5075706;28;20083;-46
2021/06/22 03:10:07;;;;;;;11.32;8.18;;;;;;;;;;5075464;28;20425;-45
2021/06/22 03:12:35;;;;;;;15.70;9.32;;;;;;;;;;5075204;28;20027;-45
2021/06/22 03:15:01;;;;;;;10.73;8.73;;;;;;;;;;5075162;28;20417;-47
2021/06/22 03:17:27;;;;;;;14.15;9.75;;;;;;;;;;5075137;28;20039;-44
2021/06/22 03:19:54;;;;;;;12.90;10.07;;;;;;;;;;5075356;28;20028;-47
2021/06/22 03:22:20;;;;;;;13.05;10.40;;;;;;;;;;5075482;28;20374;-47
2021/06/22 03:24:46;;;;;;;14.98;10.23;;;;;;;;;;5075378;28;20024;-47
2021/06/22 03:27:12;;;;;;;16.02;10.55;;;;;;;;;;5075476;28;20029;-47
2021/06/22 03:29:38;;;;;;;14.57;10.05;;;;;;;;;;5075060;28;20020;-46
2021/06/22 03:32:05;;;;;;;17.85;10.73;;;;;;;;;;5074769;28;20453;-45
2021/06/22 03:34:31;;;;;;;14.10;10.60;;;;;;;;;;5074827;28;20396;-48
2021/06/22 03:36:57;;;;;;;14.40;10.15;;;;;;;;;;5073360;28;20043;-47
2021/06/22 03:39:23;;;;;;;16.63;10.50;;;;;;;;;;5071767;28;20468;-47
2021/06/22 03:41:49;;;;;;;16.10;9.43;;;;;;;;;;5074800;28;20029;-45
2021/06/22 03:44:15;;;;;;;12.27;9.77;;;;;;;;;;5080436;28;20066;-47
2021/06/22 03:46:44;;;;;;;11.63;9.63;;;;;;;;;;5094833;28;20383;-45
2021/06/22 03:49:10;;;;;;;13.88;10.25;;;;;;;;;;5095148;28;20387;-47
2021/06/22 03:51:36;;;;;;;11.32;9.60;;;;;;;;;;5094858;28;20024;-47
2021/06/22 03:54:02;;;;;;;10.55;9.45;;;;;;;;;;5094960;28;20047;-45
2021/06/22 03:56:29;;;;;;;12.68;9.55;;;;;;;;;;5094726;28;20103;-47
2021/06/22 03:58:55;;;;;;;10.70;9.52;;;;;;;;;;5095062;28;20024;-44
2021/06/22 04:01:21;;;;;;;12.82;9.35;;;;;;;;;;5094738;28;20016;-46
2021/06/22 04:03:48;;;;;;;11.52;9.57;;;;;;;;;;5094679;28;20490;-44
2021/06/22 04:06:15;;;;;;;13.18;10.18;;;;;;;;;;5094636;28;20028;-45
2021/06/22 04:08:41;;;;;;;12.30;9.82;;;;;;;;;;5094869;28;20024;-47
2021/06/22 04:11:08;;;;;;;10.27;9.23;;;;;;;;;;5094340;28;20106;-45
2021/06/22 04:13:34;;;;;;;12.07;9.73;;;;;;;;;;5094320;28;20048;-45
2021/06/22 04:16:00;;;;;;;14.55;9.95;;;;;;;;;;5094259;28;20024;-45
2021/06/22 04:18:26;;;;;;;10.70;9.55;;;;;;;;;;5094190;28;20020;-45
2021/06/22 04:20:52;;;;;;;12.27;10.13;;;;;;;;;;5094214;28;20465;-45
2021/06/22 04:23:18;;;;;;;10.05;9.13;;;;;;;;;;5094178;28;20027;-45
2021/06/22 04:25:45;;;;;;;11.32;9.98;;;;;;;;;;5094184;28;20020;-44
2021/06/22 04:28:11;;;;;;;12.10;9.65;;;;;;;;;;5094290;28;20032;-46
2021/06/22 04:30:38;;;;;;;12.85;9.50;;;;;;;;;;5094070;28;20028;-44
2021/06/22 04:33:04;;;;;;;12.15;9.88;;;;;;;;;;5094235;28;20032;-45
2021/06/22 04:35:31;;;;;;;12.07;10.32;;;;;;;;;;5093978;28;20020;-45
2021/06/22 04:38:00;;;;;;;13.40;9.88;;;;;;;;;;5093973;28;20389;-44
2021/06/22 04:40:27;;;;;;;15.18;9.38;;;;;;;;;;5094144;28;20016;-44
2021/06/22 04:42:53;;;;;;;15.95;8.77;;;;;;;;;;5093552;28;20036;-45
2021/06/22 04:45:19;;;;;;;16.90;9.60;;;;;;;;;;5093997;28;20070;-46
2021/06/22 04:47:47;;;;;;;18.08;9.40;;;;;;;;;;5078319;28;20070;-44
2021/06/22 04:50:16;;;;;;;18.70;10.55;;;;;;;;;;5073240;28;20024;-46
2021/06/22 04:52:42;;;;;;;14.05;9.50;;;;;;;;;;5073081;28;20141;-44
2021/06/22 04:55:12;;;;;;;10.73;9.20;;;;;;;;;;5073493;28;20104;-47
2021/06/22 04:57:40;;;;;;;16.15;9.73;;;;;;;;;;5072736;28;20407;-44
2021/06/22 05:00:06;;;;;;;14.40;8.88;;;;;;;;;;5070220;28;20020;-46
2021/06/22 05:02:34;;;;;;;13.43;9.77;;;;;;;;;;5072808;28;20480;-45
2021/06/22 05:05:04;;;;;;;12.88;8.80;;;;;;;;;;5072740;28;20430;-47
2021/06/22 05:07:33;;;;;;;12.35;8.98;;;;;;;;;;5072854;28;20066;-47
2021/06/22 05:09:59;;;;;;;13.95;8.85;;;;;;;;;;5071798;28;20058;-46
2021/06/22 05:12:26;;;;;;;16.92;8.65;;;;;;;;;;5072278;28;20043;-45
2021/06/22 05:14:52;;;;;;;14.18;8.75;;;;;;;;;;5072389;28;20079;-44
2021/06/22 05:17:18;;;;;;;18.25;8.77;;;;;;;;;;5072407;28;20032;-46
2021/06/22 05:19:44;;;;;;;12.50;7.85;;;;;;;;;;5072574;28;20078;-47
2021/06/22 05:22:10;;;;;;;13.50;7.68;;;;;;;;;;5072545;28;20020;-43
2021/06/22 05:24:36;;;;;;;20.92;8.13;;;;;;;;;;5072402;28;20495;-40
2021/06/22 05:27:03;;;;;;;14.35;7.43;;;;;;;;;;5072450;28;20035;-40
2021/06/22 05:29:29;;;;;;;15.98;7.13;;;;;;;;;;5069700;28;20044;-47
2021/06/22 05:31:55;;;;;;;14.23;6.53;;;;;;;;;;5072706;28;20035;-44
2021/06/22 05:34:21;;;;;;;14.93;6.90;;;;;;;;;;5073026;28;20028;-45
2021/06/22 05:36:47;;;;;;;13.85;6.63;;;;;;;;;;5072747;28;20111;-46
2021/06/22 05:39:13;;;;;;;12.43;6.53;;;;;;;;;;5072821;28;20028;-45
2021/06/22 05:41:40;;;;;;;12.73;6.53;;;;;;;;;;5072640;28;20025;-42
2021/06/22 05:44:07;;;;;;;14.48;6.40;;;;;;;;;;5072373;28;20381;-43
2021/06/22 05:46:33;;;;;;;15.13;6.30;;;;;;;;;;5072528;28;20560;-41
2021/06/22 05:48:59;;;;;;;23.23;7.07;;;;;;;;;;5072660;28;20035;-45
2021/06/22 05:51:25;;;;;;;23.10;7.20;;;;;;;;;;5072653;28;20032;-43
2021/06/22 05:53:52;;;;;;;17.90;6.45;;;;;;;;;;5072582;28;20046;-42
2021/06/22 05:56:18;;;;;;;11.75;6.03;;;;;;;;;;5072351;28;20060;-45
2021/06/22 05:58:44;;;;;;;21.85;6.57;;;;;;;;;;5073277;28;20052;-44
2021/06/22 06:01:10;;;;;;;13.73;6.13;;;;;;;;;;5076665;28;20029;-43
2021/06/22 06:03:36;;;;;;;20.35;6.07;;;;;;;;;;5076961;28;20020;-42
2021/06/22 06:06:03;;;;;;;18.13;6.35;;;;;;;;;;5076610;28;20059;-44
2021/06/22 06:08:29;;;;;;;12.70;5.47;;;;;;;;;;5076633;28;20056;-40
2021/06/22 06:10:55;;;;;;;19.08;5.90;;;;;;;;;;5076528;28;20024;-41
2021/06/22 06:13:29;;;;;;;20.98;5.97;;;;;;;;;;5076291;28;20071;-41
2021/06/22 06:15:55;;;;;;;18.38;6.47;;;;;;;;;;5076194;28;20037;-42
2021/06/22 06:18:21;;;;;;;17.55;6.13;;;;;;;;;;5076244;28;20029;-45
2021/06/22 06:20:48;;;;;;;16.58;5.45;;;;;;;;;;5076692;28;20024;-45
2021/06/22 06:23:15;;;;;;;14.35;5.38;;;;;;;;;;5076625;28;20240;-44
2021/06/22 06:25:41;;;;;;;19.73;6.03;;;;;;;;;;5076323;28;20016;-46
2021/06/22 06:28:15;;;;;;;15.90;5.45;;;;;;;;;;5076157;28;20374;-44
2021/06/22 06:30:41;;;;;;;19.05;5.35;;;;;;;;;;5076239;28;20021;-45
2021/06/22 06:33:07;;;;;;;20.17;5.68;;;;;;;;;;5076422;28;20045;-45
2021/06/22 06:35:33;;;;;;;16.73;4.93;;;;;;;;;;5076073;28;20020;-44
2021/06/22 06:37:59;;;;;;;20.83;5.55;;;;;;;;;;5076154;28;20481;-44
2021/06/22 06:40:26;;;;;;;16.85;5.10;;;;;;;;;;5075809;28;20028;-45
2021/06/22 06:42:52;;;;;;;19.25;5.03;;;;;;;;;;5075729;28;20078;-43
2021/06/22 06:45:18;;;;;;;14.90;5.30;;;;;;;;;;5075777;28;20140;-45
2021/06/22 06:47:48;;;;;;;14.57;6.15;;;;;;;;;;5075728;28;20350;-45
2021/06/22 06:50:14;;;;;;;19.33;5.13;;;;;;;;;;5075857;28;20021;-44
2021/06/22 06:52:41;;;;;;;18.52;5.00;;;;;;;;;;5075675;28;20077;-43
2021/06/22 06:55:26;;;;;;;17.38;5.45;;;;;;;;;;5075938;28;20035;-45
2021/06/22 06:58:00;;;;;;;17.30;5.97;;;;;;;;;;5075424;28;20115;-46
2021/06/22 07:00:28;;;;;;;13.02;4.88;;;;;;;;;;5075582;28;20430;-45
2021/06/22 07:02:54;;;;;;;18.70;4.90;;;;;;;;;;5075786;28;20150;-46
2021/06/22 07:05:20;;;;;;;15.38;4.88;;;;;;;;;;5075734;28;20105;-47
2021/06/22 07:07:47;;;;;;;21.75;4.90;;;;;;;;;;5075567;28;20111;-45
2021/06/22 07:10:13;;;;;;;16.23;4.60;;;;;;;;;;5075445;28;20029;-45
2021/06/22 07:12:39;;;;;;;14.93;4.50;;;;;;;;;;5075270;28;20435;-45
2021/06/22 07:15:06;;;;;;;20.15;4.25;;;;;;;;;;5075435;28;20547;-44
2021/06/22 07:17:32;;;;;;;12.05;4.03;;;;;;;;;;5075382;28;20033;-45
2021/06/22 07:19:58;;;;;;;34.47;13.77;;;;;;;;;;5075492;28;20040;-44
2021/06/22 07:22:24;;;;;;;23.00;5.30;;;;;;;;;;5075499;28;20115;-47
2021/06/22 07:24:51;;;;;;;15.48;4.47;;;;;;;;;;5075374;28;20020;-45
2021/06/22 07:27:17;;;;;;;16.88;4.82;;;;;;;;;;5075066;28;20032;-46
2021/06/22 07:29:43;;;;;;;18.77;4.85;;;;;;;;;;5075282;28;20028;-45
2021/06/22 07:32:09;;;;;;;17.23;6.47;;;;;;;;;;5075188;28;20537;-46
2021/06/22 07:34:36;;;;;;;16.67;5.38;;;;;;;;;;5075198;28;20020;-44
2021/06/22 07:37:02;;;;;;;20.52;8.43;;;;;;;;;;5075064;28;20044;-44
2021/06/22 07:39:29;;;;;;;23.55;5.15;;;;;;;;;;5075129;28;20021;-46
2021/06/22 07:41:55;;;;;;;16.92;4.28;;;;;;;;;;5074399;28;20029;-45
2021/06/22 07:44:21;;;;;;;15.70;5.30;;;;;;;;;;5074317;28;20028;-45
2021/06/22 07:46:47;;;;;;;15.88;4.70;;;;;;;;;;5074480;28;20405;-45
2021/06/22 07:49:13;;;;;;;19.90;4.70;;;;;;;;;;5074326;28;20027;-44
2021/06/22 07:51:39;;;;;;;16.67;4.80;;;;;;;;;;5074177;28;20043;-44
2021/06/22 07:54:06;;;;;;;18.88;4.15;;;;;;;;;;5072803;28;20033;-46
2021/06/22 07:56:32;;;;;;;14.35;3.97;;;;;;;;;;5074170;28;20039;-44
2021/06/22 07:58:58;;;;;;;19.38;5.03;;;;;;;;;;5073870;28;20070;-46
2021/06/22 08:01:25;;;;;;;15.73;3.83;;;;;;;;;;5074144;28;20029;-42
2021/06/22 08:03:51;;;;;;;16.85;4.57;;;;;;;;;;5071592;28;20059;-45
2021/06/22 08:06:18;;;;;;;20.55;4.78;;;;;;;;;;5072765;28;20037;-46
2021/06/22 08:08:44;;;;;;;15.57;3.97;;;;;;;;;;5074228;28;20021;-44
2021/06/22 08:11:10;;;;;;;14.50;3.67;;;;;;;;;;5074140;28;20029;-43
2021/06/22 08:13:37;;;;;;;19.88;4.30;;;;;;;;;;5074073;28;20453;-44
2021/06/22 08:16:03;;;;;;;13.70;3.67;;;;;;;;;;5074373;28;20370;-45
2021/06/22 08:18:29;;;;;;;14.95;3.65;;;;;;;;;;5074506;28;20392;-44
2021/06/22 08:20:56;;;;;;;18.05;3.60;;;;;;;;;;5074499;28;20032;-51
2021/06/22 08:23:22;;;;;;;19.00;3.72;;;;;;;;;;5073753;28;20025;-51
2021/06/22 08:25:49;;;;;;;13.82;3.67;;;;;;;;;;5074065;28;20078;-44
2021/06/22 08:28:15;;;;;;;13.80;4.97;;;;;;;;;;5073879;28;20024;-44
2021/06/22 08:30:41;;;;;;;18.15;4.13;;;;;;;;;;5076108;28;20099;-44
2021/06/22 08:33:07;;;;;;;20.50;4.35;;;;;;;;;;5094112;28;20124;-44
2021/06/22 08:35:37;;;;;;;19.50;4.90;;;;;;;;;;5093986;28;20091;-44
2021/06/22 08:38:04;;;;;;;17.00;6.95;;;;;;;;;;5093930;28;20104;-45
2021/06/22 08:40:30;;;;;;;29.80;8.98;;;;;;;;;;5094074;28;20024;-43
2021/06/22 08:42:56;;;;;;;87.30;35.95;;;;;;;;;;5093756;28;20032;-45
2021/06/22 08:45:23;;;;;;;29.25;7.47;;;;;;;;;;5094178;28;20028;-44
2021/06/22 08:47:49;;;;;;;34.55;10.57;;;;;;;;;;5094191;28;20019;-45
2021/06/22 08:50:16;;;;;;;26.40;8.55;;;;;;;;;;5094021;28;20476;-46
2021/06/22 08:52:43;;;;;;;26.50;6.18;;;;;;;;;;5093912;28;20020;-46
2021/06/22 08:55:25;;;;;;;24.08;6.80;;;;;;;;;;5093846;28;20073;-45
2021/06/22 08:57:52;;;;;;;24.83;7.85;;;;;;;;;;5093909;28;20384;-45
2021/06/22 09:00:18;;;;;;;22.83;10.05;;;;;;;;;;5093701;28;20096;-44
2021/06/22 09:02:44;;;;;;;17.77;6.18;;;;;;;;;;5093374;28;20556;-45
2021/06/22 09:05:12;;;;;;;24.23;9.70;;;;;;;;;;5093651;28;20128;-46
2021/06/22 09:07:50;;;;;;;18.20;5.45;;;;;;;;;;5093697;28;20023;-46
2021/06/22 09:10:26;;;;;;;18.65;5.55;;;;;;;;;;5093658;28;20050;-44
2021/06/22 09:12:53;;;;;;;23.85;6.25;;;;;;;;;;5093503;28;20024;-46
2021/06/22 09:15:20;;;;;;;37.08;14.80;;;;;;;;;;5093458;28;20176;-45
2021/06/22 09:17:47;;;;;;;22.20;5.57;;;;;;;;;;5093118;28;20475;-46
2021/06/22 09:20:14;;;;;;;26.08;7.72;;;;;;;;;;5093630;28;20016;-46
2021/06/22 09:22:40;;;;;;;22.13;6.30;;;;;;;;;;5093674;28;20456;-46
2021/06/22 09:25:09;;;;;;;20.17;5.07;;;;;;;;;;5078196;28;20082;-44
2021/06/22 09:27:51;;;;;;;28.13;13.55;;;;;;;;;;5072082;28;20465;-46
2021/06/22 09:30:37;;;;;;;26.73;8.65;;;;;;;;;;5064961;28;20031;-43
2021/06/22 09:33:13;;;;;;;26.65;6.75;;;;;;;;;;5071402;28;20078;-46
2021/06/22 09:35:39;;;;;;;26.67;7.78;;;;;;;;;;5072784;28;20111;-46
2021/06/22 09:38:05;;;;;;;26.83;11.77;;;;;;;;;;5073079;28;20435;-43
2021/06/22 09:40:31;;;;;;;22.02;6.50;;;;;;;;;;5073265;28;20032;-44
2021/06/22 09:42:58;;;;;;;24.75;5.35;;;;;;;;;;5071664;28;20040;-42
2021/06/22 09:45:24;;;;;;;29.75;10.43;;;;;;;;;;5071722;28;20041;-43
2021/06/22 09:47:51;;;;;;;23.20;5.18;;;;;;;;;;5071598;28;20077;-45
2021/06/22 09:50:36;;;;;;;19.23;4.57;;;;;;;;;;5072269;28;20032;-45
2021/06/22 09:53:21;;;;;;;18.00;5.22;;;;;;;;;;5072809;28;20565;-43
2021/06/22 09:55:47;;;;;;;20.15;4.68;;;;;;;;;;5072638;28;20037;-45
2021/06/22 09:58:14;;;;;;;21.60;5.55;;;;;;;;;;5073057;28;20047;-43
2021/06/22 10:00:40;;;;;;;20.42;5.45;;;;;;;;;;5075425;28;20048;-45
2021/06/22 10:03:07;;;;;;;18.90;3.97;;;;;;;;;;5092881;28;20139;-45
2021/06/22 10:05:52;;;;;;;15.60;4.03;;;;;;;;;;5093064;28;20081;-46
2021/06/22 10:08:18;;;;;;;22.42;5.03;;;;;;;;;;5074911;28;20052;-42
2021/06/22 10:10:45;;;;;;;18.60;4.50;;;;;;;;;;5071485;28;20009;-45
2021/06/22 10:13:31;;;;;;;16.35;4.25;;;;;;;;;;5070998;28;20032;-42
2021/06/22 10:16:16;;;;;;;10.68;4.22;;;;;;;;;;5069167;28;20047;-41
2021/06/22 10:18:42;;;;;;;23.73;4.88;;;;;;;;;;5069678;28;20021;-45
2021/06/22 10:21:09;;;;;;;18.23;4.30;;;;;;;;;;5071543;28;20025;-43
2021/06/22 10:23:35;;;;;;;18.55;4.60;;;;;;;;;;5069283;28;20017;-44
2021/06/22 10:26:01;;;;;;;21.88;4.60;;;;;;;;;;5071266;28;20036;-45
2021/06/22 10:28:30;;;;;;;15.95;4.22;;;;;;;;;;5071192;28;20028;-42
2021/06/22 10:31:00;;;;;;;21.92;4.82;;;;;;;;;;5071709;28;20027;-45
2021/06/22 10:33:26;;;;;;;17.17;4.68;;;;;;;;;;5072083;28;20055;-45
2021/06/22 10:35:52;;;;;;;15.48;5.03;;;;;;;;;;5072512;28;20023;-46
2021/06/22 10:38:21;;;;;;;20.70;4.93;;;;;;;;;;5071891;28;20024;-46
2021/06/22 10:40:53;;;;;;;15.50;3.80;;;;;;;;;;5070645;28;20036;-44
2021/06/22 10:43:33;;;;;;;21.25;5.60;;;;;;;;;;5071624;28;20070;-42
2021/06/22 10:46:03;;;;;;;20.80;4.95;;;;;;;;;;5074491;28;20468;-44
2021/06/22 10:48:39;;;;;;;24.23;6.13;;;;;;;;;;5075777;28;20052;-45
2021/06/22 10:51:24;;;;;;;19.10;4.57;;;;;;;;;;5075740;28;20030;-45
2021/06/22 10:53:50;;;;;;;18.50;4.72;;;;;;;;;;5075966;28;20056;-46
2021/06/22 10:56:17;;;;;;;20.42;5.18;;;;;;;;;;5075904;28;20039;-43
2021/06/22 10:59:04;;;;;;;21.88;5.65;;;;;;;;;;5075809;28;20108;-43
2021/06/22 11:01:50;;;;;;;18.17;4.93;;;;;;;;;;5085048;28;20040;-43
2021/06/22 11:04:17;;;;;;;64.53;11.20;;;;;;;;;;5095962;28;20051;-43
2021/06/22 11:06:59;;;;;;;24.63;4.72;;;;;;;;;;5096044;28;20499;-43
2021/06/22 11:09:25;;;;;;;24.77;5.13;;;;;;;;;;5095694;28;20024;-45
2021/06/22 11:12:11;;;;;;;22.20;5.85;;;;;;;;;;5095823;28;20028;-43
2021/06/22 11:14:55;;;;;;;28.50;5.45;;;;;;;;;;5095229;28;20084;-42
2021/06/22 11:17:40;;;;;;;20.02;5.50;;;;;;;;;;5095643;28;20047;-43
2021/06/22 11:20:13;;;;;;;25.75;6.40;;;;;;;;;;5095722;28;20524;-44
2021/06/22 11:22:57;;;;;;;30.70;7.50;;;;;;;;;;5095392;28;20032;-44
2021/06/22 11:25:23;;;;;;;20.15;4.50;;;;;;;;;;5095601;28;20051;-45
2021/06/22 11:28:03;;;;;;;20.27;4.63;;;;;;;;;;5095577;28;20105;-44
2021/06/22 11:30:50;;;;;;;17.27;4.18;;;;;;;;;;5095017;28;20020;-42
2021/06/22 11:33:28;;;;;;;19.13;5.22;;;;;;;;;;5073345;28;21057;-42
2021/06/22 11:36:13;;;;;;;24.58;6.75;;;;;;;;;;5047389;28;20079;-42
2021/06/22 11:38:42;;;;;;;24.83;5.10;;;;;;;;;;5047703;28;20079;-46
2021/06/22 11:41:11;;;;;;;47.85;20.00;;;;;;;;;;5047828;28;20089;-42
2021/06/22 11:43:37;;;;;;;44.93;17.80;;;;;;;;;;5047422;28;20396;-41
2021/06/22 11:46:36;;;;;;;48.40;19.50;;;;;;;;;;5047685;28;20273;-42
2021/06/22 11:49:03;;;;;;;61.63;24.75;;;;;;;;;;5000643;28;20184;-43
2021/06/22 11:51:47;;;;;;;55.80;22.45;;;;;;;;;;5000734;28;20108;-44
2021/06/22 11:54:14;;;;;;;57.75;24.25;;;;;;;;;;5000653;28;20033;-43
2021/06/22 11:56:40;;;;;;;56.28;22.20;;;;;;;;;;4999812;28;20446;-42
2021/06/22 11:59:06;;;;;;;47.35;18.92;;;;;;;;;;5000586;28;20202;-44
2021/06/22 12:01:32;;;;;;;49.67;18.15;;;;;;;;;;5000922;28;20029;-44
2021/06/22 12:03:58;;;;;;;43.72;11.77;;;;;;;;;;5000482;28;20037;-43
2021/06/22 12:06:25;;;;;;;28.58;5.95;;;;;;;;;;5000900;28;20044;-42
2021/06/22 12:08:51;;;;;;;32.72;8.82;;;;;;;;;;5000663;28;20056;-45
2021/06/22 12:11:36;;;;;;;49.17;18.73;;;;;;;;;;5000339;28;20366;-43
2021/06/22 12:14:03;;;;;;;40.95;11.88;;;;;;;;;;4999880;28;20057;-44
2021/06/22 12:16:32;;;;;;;53.50;19.15;;;;;;;;;;5000669;28;20579;-44
2021/06/22 12:19:00;;;;;;;37.45;14.50;;;;;;;;;;5000280;28;20467;-43
2021/06/22 12:21:27;;;;;;;98.15;37.47;;;;;;;;;;5000266;28;20583;-43
2021/06/22 12:23:59;;;;;;;30.55;9.00;;;;;;;;;;5008074;28;20045;-43
2021/06/22 12:26:26;;;;;;;26.67;7.10;;;;;;;;;;5047186;28;20025;-43
2021/06/22 12:28:52;;;;;;;33.45;11.57;;;;;;;;;;5046956;28;20028;-43
2021/06/22 12:31:18;;;;;;;66.20;31.23;;;;;;;;;;5046984;28;20052;-42
2021/06/22 12:33:47;;;;;;;25.95;7.57;;;;;;;;;;5047322;28;20025;-43
2021/06/22 12:36:18;;;;;;;43.53;16.73;;;;;;;;;;5046779;28;20040;-42
2021/06/22 12:38:45;;;;;;;28.02;9.18;;;;;;;;;;5047119;28;20297;-42
2021/06/22 12:41:11;;;;;;;46.28;15.40;;;;;;;;;;5047010;28;20024;-41
2021/06/22 12:43:40;;;;;;;20.95;6.70;;;;;;;;;;5046419;28;20029;-42
2021/06/22 12:46:07;;;;;;;25.92;6.03;;;;;;;;;;5046560;28;20215;-41
2021/06/22 12:48:33;;;;;;;70.70;32.05;;;;;;;;;;5046684;28;20020;-42
2021/06/22 12:51:00;;;;;;;30.23;8.93;;;;;;;;;;5046701;28;20017;-42
2021/06/22 12:53:28;;;;;;;21.55;7.72;;;;;;;;;;5046689;28;20032;-43
2021/06/22 12:56:05;;;;;;;29.25;6.57;;;;;;;;;;5046420;28;20105;-41
2021/06/22 12:58:44;;;;;;;35.53;10.98;;;;;;;;;;5046397;28;20060;-43
2021/06/22 13:01:25;;;;;;;24.02;5.95;;;;;;;;;;5046167;28;20032;-42
2021/06/22 13:03:51;;;;;;;39.10;16.23;;;;;;;;;;5046465;28;20610;-41
2021/06/22 13:06:27;;;;;;;44.58;18.95;;;;;;;;;;5046457;28;20068;-42
2021/06/22 13:08:57;;;;;;;20.45;5.53;;;;;;;;;;5046332;28;20073;-42
2021/06/22 13:11:24;;;;;;;14.57;4.35;;;;;;;;;;5046445;28;20028;-43
2021/06/22 13:13:50;;;;;;;31.48;5.75;;;;;;;;;;5045659;28;20396;-45
2021/06/22 13:16:16;;;;;;;22.02;5.22;;;;;;;;;;5046308;28;20037;-41
2021/06/22 13:18:57;;;;;;;33.05;6.03;;;;;;;;;;5046402;28;20902;-41
2021/06/22 13:21:25;;;;;;;26.40;6.35;;;;;;;;;;5046261;28;20115;-42
2021/06/22 13:23:51;;;;;;;19.40;4.85;;;;;;;;;;5046453;28;20506;-42
2021/06/22 13:26:17;;;;;;;26.50;8.38;;;;;;;;;;5046328;28;20028;-42
2021/06/22 13:28:54;;;;;;;26.20;6.00;;;;;;;;;;5046674;28;20020;-42
2021/06/22 13:31:20;;;;;;;26.08;7.18;;;;;;;;;;5046147;28;20740;-43
2021/06/22 13:33:46;;;;;;;23.35;5.30;;;;;;;;;;5045920;28;20119;-43
2021/06/22 13:36:19;;;;;;;22.80;6.22;;;;;;;;;;5055482;28;20476;-43
2021/06/22 13:39:00;;;;;;;18.83;4.65;;;;;;;;;;5072836;28;20170;-43
2021/06/22 13:41:26;;;;;;;27.48;5.70;;;;;;;;;;5072959;28;20107;-45
2021/06/22 13:43:52;;;;;;;21.88;6.10;;;;;;;;;;5072913;28;20396;-45
2021/06/22 13:46:25;;;;;;;25.25;5.90;;;;;;;;;;5088494;28;20028;-44
2021/06/22 13:48:53;;;;;;;23.90;4.70;;;;;;;;;;5072888;28;20495;-45
2021/06/22 13:51:27;;;;;;;25.00;7.47;;;;;;;;;;5072853;28;20020;-43
2021/06/22 13:54:03;;;;;;;24.08;6.50;;;;;;;;;;5072741;28;20025;-44
2021/06/22 13:56:31;;;;;;;30.02;4.80;;;;;;;;;;5072199;28;20078;-43
2021/06/22 13:58:57;;;;;;;23.48;5.47;;;;;;;;;;5072432;28;20063;-42
2021/06/22 14:01:23;;;;;;;26.15;6.32;;;;;;;;;;5073292;28;20025;-44
2021/06/22 14:03:50;;;;;;;27.13;7.35;;;;;;;;;;5092976;28;20109;-42
2021/06/22 14:06:16;;;;;;;28.00;6.57;;;;;;;;;;5092785;28;20020;-42
2021/06/22 14:08:42;;;;;;;23.83;5.47;;;;;;;;;;5092950;28;20490;-44
2021/06/22 14:11:09;;;;;;;25.38;6.75;;;;;;;;;;5092723;28;20028;-42
2021/06/22 14:13:35;;;;;;;24.95;7.03;;;;;;;;;;5092361;28;20055;-43
2021/06/22 14:16:01;;;;;;;19.30;6.28;;;;;;;;;;5092688;28;20111;-41
2021/06/22 14:18:30;;;;;;;54.85;15.63;;;;;;;;;;5092734;28;20020;-41
2021/06/22 14:20:56;;;;;;;31.95;7.80;;;;;;;;;;5095228;28;20018;-41
2021/06/22 14:23:22;;;;;;;32.55;9.13;;;;;;;;;;5096637;28;20024;-41
2021/06/22 14:25:48;;;;;;;31.73;8.95;;;;;;;;;;5096672;28;20028;-42
2021/06/22 14:28:18;;;;;;;35.60;13.23;;;;;;;;;;5096787;28;20024;-41
2021/06/22 14:30:44;;;;;;;;;;;;;;;;;;5095547;28;20404;-41
2021/06/22 14:33:10;;;;;;;37.20;12.00;;;;;;;;;;5094960;28;19911;-41
2021/06/22 14:35:36;;;;;;;34.47;6.28;;;;;;;;;;5096221;28;20028;-41